Time;durP1;ratioP1;P1;durP2;ratioP2;P2;SDS_P1;SDS_P2;PMS_P1;PMS_P2;Temp;Humidity;BMP_temperature;BMP_pressure;BME280_temperature;BME280_humidity;BME280_pressure;Samples;Min_cycle;Max_cycle;Signal;HPM_P1;HPM_P2
2024/04/14 00:00:30;;;;;;;;;;;;;;;8.85;100.00;100353.06;5562315;25;19927;-68
2024/04/14 00:02:55;;;;;;;;;;;;;;;8.90;100.00;100344.63;5562013;25;20270;-66
2024/04/14 00:05:21;;;;;;;;;;;;;;;8.89;100.00;100345.63;5562519;25;20274;-70
2024/04/14 00:07:46;;;;;;;;;;;;;;;8.85;100.00;100339.78;5562581;25;20277;-69
2024/04/14 00:10:11;;;;;;;;;;;;;;;8.85;100.00;100338.97;5562555;25;19927;-67
2024/04/14 00:12:37;;;;;;;;;;;;;;;8.84;100.00;100327.50;5563326;25;19934;-70
2024/04/14 00:15:02;;;;;;;;;;;;;;;8.82;100.00;100328.66;5529033;25;19926;-69
2024/04/14 00:17:28;;;;;;;;;;;;;;;8.83;100.00;100320.53;5561934;25;19959;-67
2024/04/14 00:19:53;;;;;;;;;;;;;;;8.91;100.00;100320.56;5565724;25;19927;-68
2024/04/14 00:22:19;;;;;;;;;;;;;;;8.95;100.00;100313.09;5553823;25;19927;-69
2024/04/14 00:24:44;;;;;;;;;;;;;;;8.91;100.00;100317.91;5549450;25;19927;-70
2024/04/14 00:27:09;;;;;;;;;;;;;;;8.98;100.00;100320.75;5566549;25;19991;-66
2024/04/14 00:29:35;;;;;;;;;;;;;;;8.99;100.00;100314.44;5565768;25;19934;-68
2024/04/14 00:32:00;;;;;;;;;;;;;;;9.04;100.00;100312.13;5565386;25;19927;-67
2024/04/14 00:34:25;;;;;;;;;;;;;;;9.03;100.00;100310.47;5532327;25;20281;-69
2024/04/14 00:36:51;;;;;;;;;;;;;;;8.96;100.00;100315.59;5564922;25;19935;-69
2024/04/14 00:39:16;;;;;;;;;;;;;;;8.98;100.00;100302.16;5565073;25;19927;-69
2024/04/14 00:41:42;;;;;;;;;;;;;;;8.95;100.00;100302.47;5565294;25;19938;-68
2024/04/14 00:44:07;;;;;;;;;;;;;;;8.94;100.00;100298.97;5565901;25;19927;-68
2024/04/14 00:46:32;;;;;;;;;;;;;;;8.88;100.00;100299.63;5501271;25;19927;-69
2024/04/14 00:48:58;;;;;;;;;;;;;;;8.80;100.00;100299.63;5565238;25;19934;-70
2024/04/14 00:51:24;;;;;;;;;;;;;;;8.74;100.00;100304.75;5565592;25;19927;-67
2024/04/14 00:53:49;;;;;;;;;;;;;;;8.68;100.00;100301.75;5565210;25;19926;-67
2024/04/14 00:56:15;;;;;;;;;;;;;;;8.62;100.00;100305.03;5535919;25;19927;-68
2024/04/14 00:58:40;;;;;;;;;;;;;;;8.61;100.00;100300.72;5578176;25;20265;-66
2024/04/14 01:01:06;;;;;;;;;;;;;;;8.56;100.00;100299.56;5577094;25;19927;-69
2024/04/14 01:03:33;;;;;;;;;;;;;;;8.53;100.00;100297.22;5565222;25;20299;-67
2024/04/14 01:05:59;;;;;;;;;;;;;;;8.48;100.00;100299.53;5564739;25;19935;-67
2024/04/14 01:08:24;;;;;;;;;;;;;;;8.47;100.00;100295.22;5565503;25;19934;-66
2024/04/14 01:10:49;;;;;;;;;;;;;;;8.51;100.00;100292.06;5564512;25;19958;-69
2024/04/14 01:13:15;;;;;;;;;;;;;;;8.55;100.00;100287.28;5532176;25;19927;-69
2024/04/14 01:15:40;;;;;;;;;;;;;;;8.53;100.00;100281.28;5565044;25;19927;-69
2024/04/14 01:18:07;;;;;;;;;;;;;;;8.49;100.00;100277.31;5564626;25;19927;-71
2024/04/14 01:20:34;;;;;;;;;;;;;;;8.45;100.00;100274.16;5564930;25;20399;-69
2024/04/14 01:22:59;;;;;;;;;;;;;;;8.40;100.00;100265.00;5565034;25;19927;-67
2024/04/14 01:25:25;;;;;;;;;;;;;;;8.39;100.00;100266.84;5564837;25;19934;-69
2024/04/14 01:27:51;;;;;;;;;;;;;;;8.38;100.00;100266.00;5500452;25;19933;-67
2024/04/14 01:30:17;;;;;;;;;;;;;;;8.32;100.00;100263.09;5565517;25;19927;-69
2024/04/14 01:32:42;;;;;;;;;;;;;;;8.28;100.00;100262.59;5564804;25;20407;-68
2024/04/14 01:35:08;;;;;;;;;;;;;;;8.27;100.00;100260.94;5564644;25;19933;-68
2024/04/14 01:37:34;;;;;;;;;;;;;;;8.29;100.00;100258.94;5531624;25;19927;-69
2024/04/14 01:40:01;;;;;;;;;;;;;;;8.30;100.00;100244.69;5564082;25;20013;-69
2024/04/14 01:42:28;;;;;;;;;;;;;;;8.28;100.00;100251.97;5564118;25;20287;-68
2024/04/14 01:44:54;;;;;;;;;;;;;;;8.24;100.00;100245.34;5564271;25;19935;-69
2024/04/14 01:47:19;;;;;;;;;;;;;;;8.23;100.00;100243.69;5565295;25;20380;-68
2024/04/14 01:49:44;;;;;;;;;;;;;;;8.23;100.00;100248.16;5564787;25;19927;-67
2024/04/14 01:52:10;;;;;;;;;;;;;;;8.23;100.00;100243.69;5500815;25;19933;-69
2024/04/14 01:54:35;;;;;;;;;;;;;;;8.17;100.00;100239.03;5563892;25;20019;-68
2024/04/14 01:57:00;;;;;;;;;;;;;;;8.16;100.00;100231.22;5564301;25;19931;-68
2024/04/14 01:59:26;;;;;;;;;;;;;;;8.15;100.00;100230.41;5564137;25;19931;-68
2024/04/14 02:01:51;;;;;;;;;;;;;;;8.12;100.00;100225.41;5565124;25;20292;-67
2024/04/14 02:04:17;;;;;;;;;;;;;;;8.13;100.00;100216.47;5563736;25;19934;-69
2024/04/14 02:06:42;;;;;;;;;;;;;;;8.15;100.00;100219.78;5531340;25;19959;-69
2024/04/14 02:09:07;;;;;;;;;;;;;;;8.18;100.00;100214.16;5531209;25;19934;-68
2024/04/14 02:11:33;;;;;;;;;;;;;;;8.15;100.00;100208.34;5564292;25;19927;-66
2024/04/14 02:13:58;;;;;;;;;;;;;;;8.17;100.00;100211.66;5564757;25;19926;-66
2024/04/14 02:16:23;;;;;;;;;;;;;;;8.16;100.00;100210.00;5564259;25;19934;-67
2024/04/14 02:18:49;;;;;;;;;;;;;;;8.14;100.00;100207.50;5531227;25;19927;-65
2024/04/14 02:21:14;;;;;;;;;;;;;;;8.15;100.00;100209.19;5564017;25;19934;-67
2024/04/14 02:23:40;;;;;;;;;;;;;;;8.14;100.00;100191.59;5564107;25;19951;-68
2024/04/14 02:26:06;;;;;;;;;;;;;;;8.12;100.00;100187.44;5564575;25;19935;-67
2024/04/14 02:28:31;;;;;;;;;;;;;;;8.13;100.00;100179.34;5564645;25;19927;-69
2024/04/14 02:30:56;;;;;;;;;;;;;;;8.13;100.00;100181.97;5500158;25;20380;-67
2024/04/14 02:33:22;;;;;;;;;;;;;;;8.14;100.00;100181.00;5564309;25;19927;-67
2024/04/14 02:35:58;;;;;;;;;;;;;;;8.19;100.00;100173.38;5532456;25;19942;-68
2024/04/14 02:38:24;;;;;;;;;;;;;;;8.23;100.00;100168.56;5503380;25;19934;-67
2024/04/14 02:40:59;;;;;;;;;;;;;;;8.19;100.00;100165.41;5566131;25;19927;-67
2024/04/14 02:43:26;;;;;;;;;;;;;;;8.20;100.00;100163.59;5566214;25;19933;-69
2024/04/14 02:45:51;;;;;;;;;;;;;;;8.21;100.00;100160.78;5566806;25;19927;-68
2024/04/14 02:48:17;;;;;;;;;;;;;;;8.22;100.00;100157.13;5563818;25;19972;-68
2024/04/14 02:50:43;;;;;;;;;;;;;;;8.26;100.00;100157.63;5565781;25;19993;-68
2024/04/14 02:53:11;;;;;;;;;;;;;;;8.29;100.00;100147.53;5531587;25;19935;-68
2024/04/14 02:55:37;;;;;;;;;;;;;;;8.30;100.00;100151.00;5566992;25;19934;-67
2024/04/14 02:58:02;;;;;;;;;;;;;;;8.31;100.00;100150.84;5576421;25;19927;-67
2024/04/14 03:00:28;;;;;;;;;;;;;;;8.29;100.00;100141.38;5586482;25;19952;-69
2024/04/14 03:02:53;;;;;;;;;;;;;;;8.31;100.00;100147.34;5581399;25;19934;-66
2024/04/14 03:05:19;;;;;;;;;;;;;;;8.31;100.00;100145.53;5565821;25;19927;-67
2024/04/14 03:07:44;;;;;;;;;;;;;;;8.33;100.00;100142.72;5563697;25;19934;-67
2024/04/14 03:10:09;;;;;;;;;;;;;;;8.30;100.00;100138.56;5563752;25;19927;-69
2024/04/14 03:12:35;;;;;;;;;;;;;;;8.32;100.00;100143.72;5530499;25;19926;-69
2024/04/14 03:15:00;;;;;;;;;;;;;;;8.29;100.00;100142.22;5562838;25;19927;-70
2024/04/14 03:17:26;;;;;;;;;;;;;;;8.32;100.00;100141.88;5499408;25;19927;-69
2024/04/14 03:19:54;;;;;;;;;;;;;;;8.32;100.00;100136.59;5530829;25;20511;-70
2024/04/14 03:22:20;;;;;;;;;;;;;;;8.32;100.00;100125.97;5499337;25;19942;-67
2024/04/14 03:24:45;;;;;;;;;;;;;;;8.31;100.00;100124.31;5562463;25;20267;-69
2024/04/14 03:27:10;;;;;;;;;;;;;;;8.33;100.00;100122.34;5529861;25;19927;-70
2024/04/14 03:29:36;;;;;;;;;;;;;;;8.34;100.00;100121.34;5562711;25;20018;-68
2024/04/14 03:32:01;;;;;;;;;;;;;;;8.33;100.00;100119.69;5562855;25;20286;-70
2024/04/14 03:34:27;;;;;;;;;;;;;;;8.30;100.00;100112.03;5563459;25;19934;-68
2024/04/14 03:36:54;;;;;;;;;;;;;;;8.34;100.00;100108.09;5530013;25;19933;-68
2024/04/14 03:39:19;;;;;;;;;;;;;;;8.40;100.00;100111.13;5562343;25;20267;-67
2024/04/14 03:41:45;;;;;;;;;;;;;;;8.39;100.00;100115.59;5498688;25;19997;-68
2024/04/14 03:44:10;;;;;;;;;;;;;;;8.37;100.00;100115.72;5562518;25;20382;-67
2024/04/14 03:46:35;;;;;;;;;;;;;;;8.41;100.00;100113.59;5492116;26;19927;-67
2024/04/14 03:49:01;;;;;;;;;;;;;;;8.43;100.00;100116.09;5524991;26;19935;-69
2024/04/14 03:51:26;;;;;;;;;;;;;;;8.43;100.00;100113.44;5526639;26;19928;-68
2024/04/14 03:53:51;;;;;;;;;;;;;;;8.48;100.00;100113.75;5525385;26;19939;-68
2024/04/14 03:56:17;;;;;;;;;;;;;;;8.53;100.00;100106.13;5524915;26;19927;-67
2024/04/14 03:58:43;;;;;;;;;;;;;;;8.54;100.00;100107.78;5525201;26;19939;-68
2024/04/14 04:01:08;;;;;;;;;;;;;;;8.54;100.00;100100.66;5524759;26;20449;-69
2024/04/14 04:03:33;;;;;;;;;;;;;;;8.56;100.00;100100.50;5524802;26;20262;-68
2024/04/14 04:05:59;;;;;;;;;;;;;;;8.55;100.00;100098.84;5525549;26;20378;-68
2024/04/14 04:08:24;;;;;;;;;;;;;;;8.58;100.00;100098.50;5525675;26;19949;-68
2024/04/14 04:11:03;;;;;;;;;;;;;;;8.65;100.00;100096.84;5524591;26;19934;-68
2024/04/14 04:13:28;;;;;;;;;;;;;;;8.69;100.00;100098.19;5524938;26;19934;-69
2024/04/14 04:15:58;;;;;;;;;;;;;;;8.66;100.00;100090.53;5524637;26;19928;-69
2024/04/14 04:18:24;;;;;;;;;;;;;;;8.68;100.00;100088.56;5523924;26;19975;-69
2024/04/14 04:21:02;;;;;;;;;;;;;;;8.72;100.00;100079.28;5523693;26;19935;-69
2024/04/14 04:23:28;;;;;;;;;;;;;;;8.73;100.00;100080.94;5523292;26;19928;-68
2024/04/14 04:25:57;;;;;;;;;;;;;;;8.76;100.00;100074.44;5522819;26;19931;-68
2024/04/14 04:28:23;;;;;;;;;;;;;;;8.80;100.00;100071.28;5523174;26;19927;-67
2024/04/14 04:30:51;;;;;;;;;;;;;;;8.85;100.00;100071.59;5523298;26;19931;-68
2024/04/14 04:33:17;;;;;;;;;;;;;;;8.83;100.00;100075.44;5490815;26;19939;-71
2024/04/14 04:35:51;;;;;;;;;;;;;;;8.84;100.00;100071.78;5522964;26;19934;-69
2024/04/14 04:38:17;;;;;;;;;;;;;;;8.83;100.00;100068.28;5524008;26;20339;-67
2024/04/14 04:40:43;;;;;;;;;;;;;;;8.84;100.00;100064.63;5490422;26;19928;-71
2024/04/14 04:43:09;;;;;;;;;;;;;;;8.83;100.00;100062.16;5490362;26;19927;-70
2024/04/14 04:45:34;;;;;;;;;;;;;;;8.83;100.00;100062.16;5523186;26;19928;-70
2024/04/14 04:48:00;;;;;;;;;;;;;;;8.81;100.00;100062.31;5523714;26;19927;-71
2024/04/14 04:50:25;;;;;;;;;;;;;;;8.78;100.00;100062.66;5491303;26;20371;-68
2024/04/14 04:52:50;;;;;;;;;;;;;;;8.76;100.00;100058.50;5523215;26;19927;-67
2024/04/14 04:55:16;;;;;;;;;;;;;;;8.75;100.00;100055.03;5491693;26;20259;-68
2024/04/14 04:57:41;;;;;;;;;;;;;;;8.80;100.00;100046.56;5489890;26;20082;-71
2024/04/14 05:00:07;;;;;;;;;;;;;;;8.80;100.00;100055.34;5522251;26;19935;-68
2024/04/14 05:02:32;;;;;;;;;;;;;;;8.84;100.00;100056.66;5490016;26;19999;-69
2024/04/14 05:04:57;;;;;;;;;;;;;;;8.90;100.00;100053.34;5492513;26;19938;-69
2024/04/14 05:07:22;;;;;;;;;;;;;;;8.92;100.00;100059.31;5493744;26;20351;-68
2024/04/14 05:09:52;;;;;;;;;;;;;;;8.94;100.00;100065.28;5526947;26;19939;-69
2024/04/14 05:12:18;;;;;;;;;;;;;;;8.88;100.00;100065.97;5494206;26;19939;-69
2024/04/14 05:14:43;;;;;;;;;;;;;;;8.93;100.00;100050.34;5526325;26;19977;-69
2024/04/14 05:17:08;;;;;;;;;;;;;;;8.92;100.00;100053.16;5526333;26;19931;-70
2024/04/14 05:19:34;;;;;;;;;;;;;;;8.93;100.00;100045.03;5493994;26;19934;-68
2024/04/14 05:21:59;;;;;;;;;;;;;;;8.95;100.00;100048.34;5525831;26;19964;-70
2024/04/14 05:24:24;;;;;;;;;;;;;;;9.00;100.00;100045.19;5493867;26;19935;-69
2024/04/14 05:26:49;;;;;;;;;;;;;;;9.07;100.00;100056.78;5493988;26;19928;-70
2024/04/14 05:29:15;;;;;;;;;;;;;;;9.13;100.00;100052.63;5526128;26;19942;-67
2024/04/14 05:31:40;;;;;;;;;;;;;;;9.19;100.00;100050.09;5526269;26;20378;-70
2024/04/14 05:34:06;;;;;;;;;;;;;;;9.24;100.00;100052.25;5493796;26;20271;-69
2024/04/14 05:36:31;;;;;;;;;;;;;;;9.27;100.00;100049.28;5525678;26;20014;-68
2024/04/14 05:38:56;;;;;;;;;;;;;;;9.29;100.00;100050.75;5493184;26;19958;-69
2024/04/14 05:41:22;;;;;;;;;;;;;;;9.29;100.00;100042.78;5527330;26;19927;-70
2024/04/14 05:43:48;;;;;;;;;;;;;;;9.35;100.00;100043.91;5493745;26;19927;-69
2024/04/14 05:46:13;;;;;;;;;;;;;;;9.44;100.00;100039.41;5525774;26;19927;-70
2024/04/14 05:48:38;;;;;;;;;;;;;;;9.51;100.00;100027.88;5525731;26;20393;-70
2024/04/14 05:51:04;;;;;;;;;;;;;;;9.55;100.00;100031.06;5525708;26;19927;-70
2024/04/14 05:53:29;;;;;;;;;;;;;;;9.56;100.00;100025.56;5525078;26;19938;-68
2024/04/14 05:55:55;;;;;;;;;;;;;;;9.69;100.00;100018.84;5525456;26;19972;-67
2024/04/14 05:58:20;;;;;;;;;;;;;;;9.85;100.00;100008.13;5493022;26;19996;-68
2024/04/14 06:00:45;;;;;;;;;;;;;;;9.98;100.00;100002.19;5529217;25;19934;-68
2024/04/14 06:03:11;;;;;;;;;;;;;;;10.09;100.00;100012.41;5492049;26;19927;-70
2024/04/14 06:05:43;;;;;;;;;;;;;;;10.22;100.00;100002.88;5500340;25;20505;-69
2024/04/14 06:08:27;;;;;;;;;;;;;;;10.38;100.00;100003.75;5513736;25;19935;-69
2024/04/14 06:10:56;;;;;;;;;;;;;;;10.52;100.00;99990.47;5490167;25;19935;-69
2024/04/14 06:13:23;;;;;;;;;;;;;;;10.71;100.00;99989.13;5548376;25;19928;-69
2024/04/14 06:15:48;;;;;;;;;;;;;;;10.88;100.00;99994.28;5543454;25;20432;-67
2024/04/14 06:18:14;;;;;;;;;;;;;;;11.02;100.00;99990.81;5499142;25;19977;-67
2024/04/14 06:20:39;;;;;;;;;;;;;;;11.00;100.00;99992.81;5492693;26;20275;-67
2024/04/14 06:23:05;;;;;;;;;;;;;;;10.94;100.00;99991.69;5526331;26;20320;-68
2024/04/14 06:25:30;;;;;;;;;;;;;;;10.85;100.00;99988.31;5527079;26;19927;-71
2024/04/14 06:27:56;;;;;;;;;;;;;;;10.67;100.00;99979.81;5498575;25;20567;-67
2024/04/14 06:30:22;;;;;;;;;;;;;;;10.50;100.00;99981.03;5513323;25;19933;-68
2024/04/14 06:32:47;;;;;;;;;;;;;;;10.43;100.00;99983.59;5543453;25;19933;-69
2024/04/14 06:35:12;;;;;;;;;;;;;;;10.38;100.00;99987.78;5556677;25;19926;-68
2024/04/14 06:37:38;;;;;;;;;;;;;;;10.34;100.00;99975.84;5514243;26;19931;-70
2024/04/14 06:40:03;;;;;;;;;;;;;;;10.37;100.00;99964.81;5534992;25;19964;-69
2024/04/14 06:42:29;;;;;;;;;;;;;;;10.66;100.00;99974.69;5513867;25;19942;-69
2024/04/14 06:44:54;;;;;;;;;;;;;;;10.73;100.00;99984.44;5543126;25;19938;-67
2024/04/14 06:47:19;;;;;;;;;;;;;;;10.67;100.00;99971.84;5538189;25;19995;-67
2024/04/14 06:49:45;;;;;;;;;;;;;;;10.73;100.00;99971.13;5542527;25;19927;-67
2024/04/14 06:52:10;;;;;;;;;;;;;;;10.80;100.00;99972.06;5521333;25;20093;-67
2024/04/14 06:54:36;;;;;;;;;;;;;;;10.85;100.00;99964.34;5495019;25;19935;-67
2024/04/14 06:57:02;;;;;;;;;;;;;;;10.96;100.00;99960.38;5551862;25;19927;-67
2024/04/14 06:59:27;;;;;;;;;;;;;;;11.01;100.00;99958.00;5553157;25;19927;-67
2024/04/14 07:01:52;;;;;;;;;;;;;;;11.10;100.00;99958.72;5536519;25;19939;-68
2024/04/14 07:04:18;;;;;;;;;;;;;;;11.14;100.00;99947.50;5548195;25;20354;-68
2024/04/14 07:06:43;;;;;;;;;;;;;;;11.17;100.00;99952.47;5543479;25;20441;-70
2024/04/14 07:09:09;;;;;;;;;;;;;;;11.26;100.00;99934.50;5506374;26;20352;-70
2024/04/14 07:11:34;;;;;;;;;;;;;;;11.39;100.00;99939.19;5543845;25;20291;-70
2024/04/14 07:14:00;;;;;;;;;;;;;;;11.51;100.00;99931.50;5563166;25;19976;-69
2024/04/14 07:16:25;;;;;;;;;;;;;;;11.45;100.00;99930.44;5552870;25;19990;-68
2024/04/14 07:18:50;;;;;;;;;;;;;;;11.51;100.00;99934.19;5538495;25;19936;-69
2024/04/14 07:21:16;;;;;;;;;;;;;;;11.54;100.00;99931.94;5477417;25;19927;-71
2024/04/14 07:23:41;;;;;;;;;;;;;;;11.53;100.00;99921.47;5552578;25;20042;-67
2024/04/14 07:26:06;;;;;;;;;;;;;;;11.51;100.00;99919.00;5543293;25;19993;-69
2024/04/14 07:28:32;;;;;;;;;;;;;;;11.42;100.00;99918.31;5467553;25;19927;-68
2024/04/14 07:30:58;;;;;;;;;;;;;;;11.36;100.00;99913.72;5544054;25;19928;-68
2024/04/14 07:33:23;;;;;;;;;;;;;;;11.34;100.00;99905.09;5519155;25;19931;-68
2024/04/14 07:35:52;;;;;;;;;;;;;;;11.38;100.00;99906.38;5537863;25;19939;-70
2024/04/14 07:38:17;;;;;;;;;;;;;;;11.38;100.00;99906.38;5535881;25;19951;-68
2024/04/14 07:40:43;;;;;;;;;;;;;;;11.33;100.00;99891.97;5533850;25;19935;-65
2024/04/14 07:43:08;;;;;;;;;;;;;;;11.45;100.00;99893.94;5538909;25;19927;-69
2024/04/14 07:45:36;;;;;;;;;;;;;;;11.53;100.00;99886.81;5536884;25;20272;-66
2024/04/14 07:48:02;;;;;;;;;;;;;;;11.58;100.00;99884.44;5536879;25;19927;-66
2024/04/14 07:50:27;;;;;;;;;;;;;;;11.69;100.00;99881.25;5543457;25;19934;-71
2024/04/14 07:52:53;;;;;;;;;;;;;;;11.69;100.00;99882.06;5515181;25;19927;-70
2024/04/14 07:55:19;;;;;;;;;;;;;;;11.65;99.19;99878.13;5498556;25;19928;-70
2024/04/14 07:57:44;;;;;;;;;;;;;;;11.51;99.42;99872.84;5525427;25;19933;-68
2024/04/14 08:00:10;;;;;;;;;;;;;;;11.45;100.00;99874.44;5545806;25;19928;-70
2024/04/14 08:02:35;;;;;;;;;;;;;;;11.44;100.00;99873.63;5540901;25;19927;-71
2024/04/14 08:05:00;;;;;;;;;;;;;;;11.56;100.00;99867.75;5542988;25;19927;-69
2024/04/14 08:07:26;;;;;;;;;;;;;;;11.76;99.88;99860.78;5552337;25;19927;-69
2024/04/14 08:09:51;;;;;;;;;;;;;;;12.05;98.90;99863.31;5539682;25;19927;-69
2024/04/14 08:12:17;;;;;;;;;;;;;;;12.19;96.99;99858.09;5508222;25;19938;-73
2024/04/14 08:14:42;;;;;;;;;;;;;;;12.43;96.26;99862.13;5541684;25;20108;-69
2024/04/14 08:17:07;;;;;;;;;;;;;;;12.49;93.24;99856.00;5542427;25;20049;-70
2024/04/14 08:19:33;;;;;;;;;;;;;;;12.60;92.67;99856.25;5554106;25;19927;-73
2024/04/14 08:21:58;;;;;;;;;;;;;;;12.64;92.12;99864.72;5480802;25;19999;-72
2024/04/14 08:24:24;;;;;;;;;;;;;;;12.51;93.41;99857.47;5518626;25;19927;-73
2024/04/14 08:26:49;;;;;;;;;;;;;;;12.35;94.54;99857.75;5541777;25;19934;-72
2024/04/14 08:29:15;;;;;;;;;;;;;;;12.30;94.81;99858.34;5536992;25;19927;-72
2024/04/14 08:31:40;;;;;;;;;;;;;;;12.24;95.08;99855.66;5549426;25;20262;-69
2024/04/14 08:34:06;;;;;;;;;;;;;;;12.13;93.64;99853.50;5543735;25;19943;-70
2024/04/14 08:36:32;;;;;;;;;;;;;;;11.95;94.43;99848.66;5516379;25;20018;-68
2024/04/14 08:38:58;;;;;;;;;;;;;;;11.91;95.49;99840.22;5567274;25;19927;-67
2024/04/14 08:41:24;;;;;;;;;;;;;;;11.89;95.97;99844.09;5535192;25;19934;-66
2024/04/14 08:43:51;;;;;;;;;;;;;;;11.80;95.52;99832.72;5535434;25;19927;-70
2024/04/14 08:46:17;;;;;;;;;;;;;;;11.73;95.45;99835.31;5495587;26;19973;-68
2024/04/14 08:48:43;;;;;;;;;;;;;;;11.76;96.62;99834.09;5558384;25;19931;-69
2024/04/14 08:51:09;;;;;;;;;;;;;;;11.86;96.34;99840.00;5513125;26;20375;-71
2024/04/14 08:53:36;;;;;;;;;;;;;;;11.93;95.31;99834.69;5517319;25;19974;-72
2024/04/14 08:56:02;;;;;;;;;;;;;;;11.99;94.71;99826.72;5507802;25;20393;-70
2024/04/14 08:58:30;;;;;;;;;;;;;;;12.19;95.33;99823.38;5516968;26;19942;-70
2024/04/14 09:01:01;;;;;;;;;;;;;;;12.43;93.91;99812.19;5509032;25;19927;-69
2024/04/14 09:03:29;;;;;;;;;;;;;;;12.79;90.03;99819.16;5512730;25;19928;-69
2024/04/14 09:05:56;;;;;;;;;;;;;;;12.78;89.17;99809.50;5509184;25;20310;-70
2024/04/14 09:08:23;;;;;;;;;;;;;;;12.63;87.22;99804.28;5564215;25;19934;-69
2024/04/14 09:10:48;;;;;;;;;;;;;;;12.65;88.85;99803.06;5515198;26;19927;-68
2024/04/14 09:13:14;;;;;;;;;;;;;;;12.71;90.24;99788.91;5554438;25;20274;-69
2024/04/14 09:15:42;;;;;;;;;;;;;;;12.74;88.76;99795.72;5533815;25;19933;-68
2024/04/14 09:18:08;;;;;;;;;;;;;;;12.71;90.04;99794.25;5482792;25;19956;-69
2024/04/14 09:20:33;;;;;;;;;;;;;;;12.83;91.50;99788.34;5542060;25;19931;-69
2024/04/14 09:22:58;;;;;;;;;;;;;;;12.91;86.10;99791.66;5545099;25;19927;-71
2024/04/14 09:25:24;;;;;;;;;;;;;;;12.94;85.89;99785.09;5544265;25;19935;-71
2024/04/14 09:28:00;;;;;;;;;;;;;;;13.20;83.89;99782.50;5483389;26;19927;-69
2024/04/14 09:30:25;;;;;;;;;;;;;;;13.66;81.42;99781.72;5526096;25;19960;-70
2024/04/14 09:32:51;;;;;;;;;;;;;;;13.90;78.38;99781.09;5494575;25;19934;-73
2024/04/14 09:35:18;;;;;;;;;;;;;;;14.06;77.69;99779.00;5498613;26;19976;-69
2024/04/14 09:37:44;;;;;;;;;;;;;;;14.03;75.48;99771.38;5539551;25;19939;-70
2024/04/14 09:40:11;;;;;;;;;;;;;;;13.87;76.41;99775.31;5506674;25;19927;-70
2024/04/14 09:42:37;;;;;;;;;;;;;;;13.74;77.43;99764.63;5510530;25;20378;-69
2024/04/14 09:45:06;;;;;;;;;;;;;;;13.65;78.73;99758.66;5477733;26;19927;-70
2024/04/14 09:47:31;;;;;;;;;;;;;;;13.71;79.02;99760.50;5528064;25;20499;-69
2024/04/14 09:49:57;;;;;;;;;;;;;;;13.73;77.01;99753.09;5550677;25;19927;-69
2024/04/14 09:52:22;;;;;;;;;;;;;;;13.75;78.58;99751.03;5544055;25;19926;-73
2024/04/14 09:54:48;;;;;;;;;;;;;;;13.81;78.83;99744.84;5530618;25;19927;-70
2024/04/14 09:57:13;;;;;;;;;;;;;;;13.84;77.17;99733.72;5492519;26;19927;-69
2024/04/14 09:59:39;;;;;;;;;;;;;;;13.79;76.88;99738.06;5541809;25;19927;-73
2024/04/14 10:02:06;;;;;;;;;;;;;;;13.68;78.83;99736.84;5488452;25;19927;-73
2024/04/14 10:04:32;;;;;;;;;;;;;;;13.68;79.25;99734.19;5503440;25;19927;-70
2024/04/14 10:06:58;;;;;;;;;;;;;;;13.61;77.40;99733.38;5493620;25;19934;-71
2024/04/14 10:09:24;;;;;;;;;;;;;;;13.62;79.28;99733.16;5536446;25;19933;-70
2024/04/14 10:11:49;;;;;;;;;;;;;;;13.50;78.72;99723.28;5532613;25;19934;-70
2024/04/14 10:14:15;;;;;;;;;;;;;;;13.35;78.81;99722.66;5512844;25;19927;-68
2024/04/14 10:16:50;;;;;;;;;;;;;;;13.41;79.90;99732.53;5531689;25;19934;-72
2024/04/14 10:19:18;;;;;;;;;;;;;;;13.46;77.06;99730.06;5500503;26;19996;-70
2024/04/14 10:21:43;;;;;;;;;;;;;;;13.47;78.35;99727.19;5536531;25;19927;-71
2024/04/14 10:24:10;;;;;;;;;;;;;;;13.39;78.17;99726.56;5508991;26;19927;-71
2024/04/14 10:26:35;;;;;;;;;;;;;;;13.08;79.00;99727.16;5511918;25;19931;-68
2024/04/14 10:29:05;;;;;;;;;;;;;;;12.94;80.96;99720.94;5551278;25;19934;-70
2024/04/14 10:31:31;;;;;;;;;;;;;;;12.85;79.51;99711.47;5551951;25;20268;-69
2024/04/14 10:34:01;;;;;;;;;;;;;;;12.85;79.39;99706.13;5546881;25;19979;-70
2024/04/14 10:36:27;;;;;;;;;;;;;;;12.71;79.96;99659.84;5531591;25;19993;-70
2024/04/14 10:38:52;;;;;;;;;;;;;;;13.14;80.37;99697.75;5551009;25;19927;-71
2024/04/14 10:41:18;;;;;;;;;;;;;;;13.40;78.72;99698.81;5554016;25;19995;-73
2024/04/14 10:43:43;;;;;;;;;;;;;;;13.62;75.45;99692.22;5479079;26;19943;-71
2024/04/14 10:46:10;;;;;;;;;;;;;;;13.85;75.48;99691.72;5533249;25;20382;-69
2024/04/14 10:48:40;;;;;;;;;;;;;;;13.86;74.64;99683.47;5544615;25;19972;-69
2024/04/14 10:51:06;;;;;;;;;;;;;;;13.66;74.94;99677.38;5538394;25;19931;-70
2024/04/14 10:53:33;;;;;;;;;;;;;;;13.32;74.32;99687.28;5510904;25;19939;-69
2024/04/14 10:55:58;;;;;;;;;;;;;;;13.22;76.43;99676.16;5544707;25;19935;-71
2024/04/14 10:58:27;;;;;;;;;;;;;;;13.16;76.72;99671.63;5511787;26;19927;-71
2024/04/14 11:00:52;;;;;;;;;;;;;;;13.11;77.23;99667.94;5538759;25;19927;-71
2024/04/14 11:03:18;;;;;;;;;;;;;;;12.93;76.79;99660.50;5539650;25;19933;-68
2024/04/14 11:05:44;;;;;;;;;;;;;;;12.87;77.58;99650.63;5511148;25;19934;-71
2024/04/14 11:08:11;;;;;;;;;;;;;;;12.84;76.84;99656.41;5533724;25;20279;-71
2024/04/14 11:10:37;;;;;;;;;;;;;;;12.94;78.10;99646.13;5549720;25;19927;-71
2024/04/14 11:13:02;;;;;;;;;;;;;;;13.16;77.05;99650.25;5538508;25;19951;-71
2024/04/14 11:15:28;;;;;;;;;;;;;;;13.33;77.45;99640.81;5549662;25;19934;-71
2024/04/14 11:17:53;;;;;;;;;;;;;;;13.47;75.51;99632.75;5546436;25;20382;-69
2024/04/14 11:20:19;;;;;;;;;;;;;;;13.57;75.37;99635.81;5508556;25;19939;-72
2024/04/14 11:22:44;;;;;;;;;;;;;;;13.70;74.30;99629.63;5512562;25;19935;-72
2024/04/14 11:25:09;;;;;;;;;;;;;;;13.74;73.47;99625.47;5545204;25;20355;-68
2024/04/14 11:27:35;;;;;;;;;;;;;;;13.88;74.13;99619.88;5542178;25;20365;-70
2024/04/14 11:30:00;;;;;;;;;;;;;;;13.89;73.14;99620.72;5512171;26;20343;-71
2024/04/14 11:32:35;;;;;;;;;;;;;;;14.07;73.99;99609.28;5481496;26;19939;-70
2024/04/14 11:35:09;;;;;;;;;;;;;;;14.11;72.78;99605.16;5547754;25;19960;-71
2024/04/14 11:37:36;;;;;;;;;;;;;;;14.23;72.24;99609.63;5509395;26;20378;-68
2024/04/14 11:40:03;;;;;;;;;;;;;;;14.05;71.34;99597.97;5512398;25;19975;-70
2024/04/14 11:42:31;;;;;;;;;;;;;;;13.98;73.06;99597.19;5498920;25;20207;-69
2024/04/14 11:44:57;;;;;;;;;;;;;;;13.80;73.61;99596.03;5541580;25;19927;-70
2024/04/14 11:47:25;;;;;;;;;;;;;;;13.52;73.96;99590.97;5539391;25;20854;-70
2024/04/14 11:49:51;;;;;;;;;;;;;;;13.18;76.36;99584.03;5509312;25;20459;-69
2024/04/14 11:52:18;;;;;;;;;;;;;;;13.10;76.92;99584.25;5534463;25;19939;-71
2024/04/14 11:54:43;;;;;;;;;;;;;;;13.04;77.93;99566.38;5529348;25;20353;-72
2024/04/14 11:57:09;;;;;;;;;;;;;;;12.95;79.30;99568.41;5508926;25;19926;-69
2024/04/14 11:59:34;;;;;;;;;;;;;;;12.90;79.05;99568.22;5548287;25;20315;-73
2024/04/14 12:02:02;;;;;;;;;;;;;;;12.86;79.03;99558.16;5516861;25;19971;-71
2024/04/14 12:04:27;;;;;;;;;;;;;;;12.85;79.35;99556.50;5498307;25;19956;-72
2024/04/14 12:06:53;;;;;;;;;;;;;;;12.85;79.81;99543.16;5550715;25;20381;-70
2024/04/14 12:09:19;;;;;;;;;;;;;;;12.96;80.30;99545.19;5496375;25;19934;-71
2024/04/14 12:11:44;;;;;;;;;;;;;;;12.98;79.17;99535.09;5537845;25;19928;-71
2024/04/14 12:14:09;;;;;;;;;;;;;;;13.00;79.16;99533.84;5559194;25;19927;-72
2024/04/14 12:16:35;;;;;;;;;;;;;;;13.07;79.68;99527.72;5516413;25;19933;-71
2024/04/14 12:19:01;;;;;;;;;;;;;;;13.09;78.34;99526.47;5539784;25;19970;-72
2024/04/14 12:21:26;;;;;;;;;;;;;;;13.10;78.42;99522.75;5529911;25;19927;-72
2024/04/14 12:23:52;;;;;;;;;;;;;;;13.11;78.51;99512.88;5545188;25;19941;-71
2024/04/14 12:26:17;;;;;;;;;;;;;;;13.05;77.95;99509.22;5546079;25;20027;-71
2024/04/14 12:28:42;;;;;;;;;;;;;;;12.96;78.58;99500.56;5523806;25;20309;-72
2024/04/14 12:31:08;;;;;;;;;;;;;;;12.96;79.60;99495.22;5540756;25;20383;-70
2024/04/14 12:33:33;;;;;;;;;;;;;;;12.99;80.19;99488.63;5508701;25;19928;-72